Terminal Aerodrome Forecast
Issued by NWS Omaha/Valley, NE

Home | Current Version | Previous Version | Text Only | Print | Product List | Glossary Off
Versions: 1 2 3 4 5 6 7 8 9 10 11 12 13 14 15

000
FTUS43 KOAX 151120
TAFOFK
TAF
KOFK 151120Z 1512/1612 30008KT P6SM SKC
     FM151900 28012G20KT P6SM SKC
     FM152300 27008KT P6SM SKC
     FM160200 27004KT P6SM SKC=

USA.gov is the U.S. government's official web portal to all federal, state and local government web resources and services.